createdAt,value
2022-12-31T00:01:36.074Z,10.07
2022-12-31T00:04:02.516Z,9.75
2022-12-31T00:06:32.762Z,9.73
2022-12-31T00:09:00.344Z,10.32
2022-12-31T00:11:27.860Z,9.88
2022-12-31T00:13:54.529Z,9.93
2022-12-31T00:16:25.113Z,9.05
2022-12-31T00:18:52.778Z,8.65
2022-12-31T00:21:19.773Z,10.15
2022-12-31T00:23:49.050Z,9.50
2022-12-31T00:26:21.037Z,8.85
2022-12-31T00:28:48.052Z,9.35
2022-12-31T00:31:15.829Z,10.10
2022-12-31T00:33:43.050Z,8.90
2022-12-31T00:36:11.605Z,9.30
2022-12-31T00:38:38.471Z,9.95
2022-12-31T00:41:04.996Z,7.72
2022-12-31T00:43:31.780Z,9.52
2022-12-31T00:45:58.272Z,8.75
2022-12-31T00:48:24.688Z,7.88
2022-12-31T00:50:51.161Z,7.45
2022-12-31T00:53:17.807Z,8.13
2022-12-31T00:55:44.241Z,7.00
2022-12-31T00:58:10.683Z,7.60
2022-12-31T01:00:37.602Z,6.65
2022-12-31T01:03:04.615Z,6.50
2022-12-31T01:05:31.922Z,7.88
2022-12-31T01:07:58.647Z,6.22
2022-12-31T01:10:43.838Z,6.38
2022-12-31T01:13:10.570Z,6.00
2022-12-31T01:15:37.782Z,7.43
2022-12-31T01:18:04.797Z,6.03
2022-12-31T01:20:31.631Z,6.05
2022-12-31T01:22:58.403Z,6.18
2022-12-31T01:25:34.567Z,6.40
2022-12-31T01:28:01.056Z,5.18
2022-12-31T01:30:27.523Z,5.95
2022-12-31T01:32:53.972Z,5.85
2022-12-31T01:35:20.533Z,5.72
2022-12-31T01:37:46.966Z,4.97
2022-12-31T01:40:13.523Z,5.97
2022-12-31T01:42:39.931Z,5.05
2022-12-31T01:45:10.379Z,4.50
2022-12-31T01:47:39.325Z,5.20
2022-12-31T01:50:11.827Z,4.60
2022-12-31T01:52:40.277Z,4.95
2022-12-31T01:55:16.422Z,4.63
2022-12-31T01:57:44.150Z,5.28
2022-12-31T02:00:11.595Z,4.60
2022-12-31T02:02:38.083Z,4.28
2022-12-31T02:05:08.829Z,4.10
2022-12-31T02:07:35.362Z,4.15
2022-12-31T02:10:01.899Z,4.28
2022-12-31T02:12:28.307Z,4.43
2022-12-31T02:14:55.214Z,3.97
2022-12-31T02:17:24.764Z,4.82
2022-12-31T02:19:59.289Z,3.80
2022-12-31T02:22:25.673Z,4.60
2022-12-31T02:25:00.125Z,3.53
2022-12-31T02:27:37.022Z,3.03
2022-12-31T02:30:06.656Z,3.65
2022-12-31T02:32:39.387Z,3.50
2022-12-31T02:35:09.941Z,3.55
2022-12-31T02:37:39.497Z,2.95
2022-12-31T02:40:08.071Z,3.20
2022-12-31T02:42:34.528Z,3.35
2022-12-31T02:45:01.074Z,3.10
2022-12-31T02:47:38.623Z,3.92
2022-12-31T02:50:16.852Z,2.78
2022-12-31T02:52:43.231Z,3.08
2022-12-31T02:55:27.703Z,2.67
2022-12-31T02:58:08.116Z,3.03
2022-12-31T03:00:55.698Z,2.80
2022-12-31T03:03:22.541Z,2.22
2022-12-31T03:05:50.115Z,3.17
2022-12-31T03:08:23.269Z,2.63
2022-12-31T03:10:49.923Z,2.88
2022-12-31T03:13:16.443Z,2.65
2022-12-31T03:15:42.927Z,2.75
2022-12-31T03:18:09.415Z,2.80
2022-12-31T03:20:56.174Z,2.40
2022-12-31T03:23:24.310Z,2.40
2022-12-31T03:25:50.807Z,2.35
2022-12-31T03:28:18.809Z,3.28
2022-12-31T03:30:47.392Z,2.45
2022-12-31T03:33:13.925Z,2.40
2022-12-31T03:35:41.261Z,2.45
2022-12-31T03:38:07.833Z,2.53
2022-12-31T03:40:37.867Z,2.20
2022-12-31T03:43:04.402Z,2.28
2022-12-31T03:45:30.935Z,2.50
2022-12-31T03:47:57.474Z,2.28
2022-12-31T03:50:24.003Z,2.10
2022-12-31T03:52:50.487Z,2.40
2022-12-31T03:55:16.987Z,2.45
2022-12-31T03:57:43.434Z,2.47
2022-12-31T04:00:11.984Z,2.60
2022-12-31T04:02:38.529Z,2.47
2022-12-31T04:05:05.437Z,2.30
2022-12-31T04:07:31.859Z,2.63
2022-12-31T04:09:58.595Z,2.35
2022-12-31T04:12:25.063Z,2.38
2022-12-31T04:14:51.523Z,2.42
2022-12-31T04:17:17.924Z,2.25
2022-12-31T04:19:44.347Z,2.40
2022-12-31T04:22:10.817Z,2.15
2022-12-31T04:24:37.216Z,2.33
2022-12-31T04:27:07.451Z,1.90
2022-12-31T04:29:34.674Z,2.22
2022-12-31T04:32:01.163Z,2.38
2022-12-31T04:34:27.626Z,2.03
2022-12-31T04:36:54.093Z,2.30
2022-12-31T04:39:20.532Z,1.90
2022-12-31T04:41:47.032Z,2.10
2022-12-31T04:44:13.475Z,2.10
2022-12-31T04:46:39.971Z,2.28
2022-12-31T04:49:06.480Z,2.17
2022-12-31T04:51:33.801Z,2.30
2022-12-31T04:54:00.357Z,2.20
2022-12-31T04:56:27.110Z,2.65
2022-12-31T04:58:53.569Z,2.30
2022-12-31T05:01:20.277Z,2.58
2022-12-31T05:03:47.279Z,2.28
2022-12-31T05:06:15.086Z,1.95
2022-12-31T05:08:41.620Z,2.55
2022-12-31T05:11:08.239Z,1.85
2022-12-31T05:13:34.763Z,2.03
2022-12-31T05:16:01.920Z,1.80
2022-12-31T05:18:28.820Z,1.90
2022-12-31T05:20:55.240Z,1.70
2022-12-31T05:23:21.911Z,2.10
2022-12-31T05:25:48.393Z,2.30
2022-12-31T05:28:15.202Z,2.20
2022-12-31T05:30:42.140Z,1.90
2022-12-31T05:33:08.634Z,1.80
2022-12-31T05:35:35.241Z,1.50
2022-12-31T05:38:01.979Z,2.00
2022-12-31T05:40:28.628Z,2.17
2022-12-31T05:42:55.059Z,1.90
2022-12-31T05:45:26.747Z,1.90
2022-12-31T05:47:56.678Z,1.83
2022-12-31T05:50:23.189Z,1.90
2022-12-31T05:52:49.602Z,1.85
2022-12-31T05:55:16.078Z,2.00
2022-12-31T05:57:42.541Z,2.08
2022-12-31T06:00:09.806Z,2.17
2022-12-31T06:02:36.486Z,2.65
2022-12-31T06:05:03.065Z,2.50
2022-12-31T06:07:29.495Z,2.25
2022-12-31T06:09:55.906Z,2.50
2022-12-31T06:12:22.389Z,2.38
2022-12-31T06:14:48.824Z,2.70
2022-12-31T06:17:17.820Z,2.63
2022-12-31T06:19:44.268Z,2.78
2022-12-31T06:22:10.615Z,3.10
2022-12-31T06:24:37.058Z,2.00
2022-12-31T06:27:03.482Z,2.30
2022-12-31T06:29:29.880Z,2.17
2022-12-31T06:31:56.351Z,2.63
2022-12-31T06:34:22.858Z,1.80
2022-12-31T06:36:49.260Z,2.42
2022-12-31T06:39:15.674Z,2.05
2022-12-31T06:41:42.121Z,2.58
2022-12-31T06:44:08.564Z,2.03
2022-12-31T06:46:35.043Z,1.50
2022-12-31T06:49:01.638Z,1.88
2022-12-31T06:51:28.197Z,1.63
2022-12-31T06:53:54.594Z,2.20
2022-12-31T06:56:26.476Z,1.83
2022-12-31T06:58:54.673Z,1.50
2022-12-31T07:01:39.837Z,1.70
2022-12-31T07:04:06.319Z,1.92
2022-12-31T07:06:44.150Z,2.20
2022-12-31T07:09:13.672Z,2.10
2022-12-31T07:11:58.762Z,1.67
2022-12-31T07:14:39.135Z,1.17
2022-12-31T07:17:24.164Z,1.98
2022-12-31T07:20:05.501Z,1.63
2022-12-31T07:22:32.097Z,1.70
2022-12-31T07:24:58.628Z,2.35
2022-12-31T07:27:35.380Z,1.50
2022-12-31T07:30:09.670Z,2.10
2022-12-31T07:32:48.413Z,2.10
2022-12-31T07:35:35.444Z,2.22
2022-12-31T07:38:15.074Z,2.40
2022-12-31T07:40:41.444Z,2.20
2022-12-31T07:43:14.094Z,2.65
2022-12-31T07:45:43.325Z,3.00
2022-12-31T07:48:18.421Z,3.63
2022-12-31T07:50:44.954Z,3.67
2022-12-31T07:53:11.915Z,4.78
2022-12-31T07:55:38.365Z,4.32
2022-12-31T07:58:24.995Z,4.63
2022-12-31T08:00:52.600Z,5.18
2022-12-31T08:03:22.072Z,5.07
2022-12-31T08:06:10.947Z,5.28
2022-12-31T08:08:50.976Z,5.72
2022-12-31T08:11:43.390Z,5.68
2022-12-31T08:14:11.596Z,5.18
2022-12-31T08:16:38.235Z,5.90
2022-12-31T08:19:04.896Z,5.10
2022-12-31T08:21:42.806Z,5.38
2022-12-31T08:24:15.189Z,5.75
2022-12-31T08:29:11.058Z,5.82
2022-12-31T08:31:47.906Z,5.05
2022-12-31T08:34:21.114Z,5.63
2022-12-31T08:36:47.474Z,4.88
2022-12-31T08:39:13.810Z,4.90
2022-12-31T08:41:44.293Z,5.32
2022-12-31T08:44:29.177Z,5.05
2022-12-31T08:46:59.897Z,5.30
2022-12-31T08:49:27.454Z,4.53
2022-12-31T08:51:54.136Z,5.35
2022-12-31T08:54:20.700Z,4.95
2022-12-31T08:56:58.852Z,4.72
2022-12-31T08:59:37.479Z,5.32
2022-12-31T09:02:22.790Z,4.13
2022-12-31T09:04:57.241Z,4.35
2022-12-31T09:07:30.911Z,5.20
2022-12-31T09:10:06.604Z,4.28
2022-12-31T09:12:40.452Z,5.95
2022-12-31T09:15:13.276Z,4.57
2022-12-31T09:17:42.463Z,5.18
2022-12-31T09:20:22.311Z,5.07
2022-12-31T09:22:49.055Z,5.13
2022-12-31T09:25:17.077Z,5.05
2022-12-31T09:27:49.852Z,4.60
2022-12-31T09:30:16.871Z,4.70
2022-12-31T09:33:06.358Z,4.18
2022-12-31T09:35:59.123Z,4.70
2022-12-31T09:41:10.538Z,3.83
2022-12-31T09:43:36.910Z,3.58
2022-12-31T09:46:06.375Z,5.20
2022-12-31T09:48:32.835Z,3.25
2022-12-31T09:51:21.756Z,4.55
2022-12-31T09:54:18.090Z,4.25
2022-12-31T09:57:01.051Z,3.80
2022-12-31T09:59:38.037Z,3.28
2022-12-31T10:02:18.867Z,3.75
2022-12-31T10:04:54.683Z,2.83
2022-12-31T10:07:27.252Z,2.90
2022-12-31T10:09:53.626Z,5.32
2022-12-31T10:12:35.370Z,2.65
2022-12-31T10:15:16.889Z,2.60
2022-12-31T10:18:06.692Z,2.53
2022-12-31T10:20:48.460Z,2.58
2022-12-31T10:23:33.642Z,2.30
2022-12-31T10:26:00.039Z,2.10
2022-12-31T10:28:45.311Z,2.40
2022-12-31T10:31:14.821Z,2.25
2022-12-31T10:33:56.303Z,2.10
2022-12-31T10:36:43.015Z,1.95
2022-12-31T10:39:24.238Z,1.88
2022-12-31T10:42:09.822Z,2.10
2022-12-31T10:44:36.345Z,1.60
2022-12-31T10:47:20.844Z,2.00
2022-12-31T10:50:06.142Z,2.65
2022-12-31T10:52:47.928Z,2.05
2022-12-31T10:55:26.497Z,1.90
2022-12-31T10:58:08.608Z,1.80
2022-12-31T11:00:50.764Z,1.52
2022-12-31T11:03:17.214Z,1.42
2022-12-31T11:06:02.161Z,1.30
2022-12-31T11:08:47.434Z,1.20
2022-12-31T11:11:32.184Z,1.48
2022-12-31T11:14:01.711Z,1.73
2022-12-31T11:16:31.275Z,1.58
2022-12-31T11:19:02.192Z,1.08
2022-12-31T11:21:49.162Z,0.95
2022-12-31T11:24:31.204Z,1.17
2022-12-31T11:27:22.250Z,1.02
2022-12-31T11:29:56.395Z,0.95
2022-12-31T11:32:30.224Z,0.73
2022-12-31T11:35:03.744Z,0.82
2022-12-31T11:38:05.701Z,0.80
2022-12-31T11:40:54.231Z,1.27
2022-12-31T11:43:26.925Z,0.90
2022-12-31T11:46:04.984Z,1.00
2022-12-31T11:48:32.455Z,1.23
2022-12-31T11:51:08.419Z,1.15
2022-12-31T11:53:40.093Z,1.40
2022-12-31T11:56:06.592Z,0.90
2022-12-31T11:58:33.064Z,1.10
2022-12-31T12:01:02.001Z,1.27
2022-12-31T12:03:28.742Z,0.82
2022-12-31T12:05:57.091Z,0.98
2022-12-31T12:08:24.069Z,0.80
2022-12-31T12:10:58.130Z,0.63
2022-12-31T12:13:25.435Z,0.60
2022-12-31T12:15:54.530Z,1.10
2022-12-31T12:18:29.123Z,0.90
2022-12-31T12:21:03.311Z,1.30
2022-12-31T12:23:29.814Z,2.35
2022-12-31T12:25:56.241Z,4.50
2022-12-31T12:28:26.651Z,1.35
2022-12-31T12:30:55.017Z,1.65
2022-12-31T12:33:21.991Z,1.65
2022-12-31T12:35:51.796Z,1.70
2022-12-31T12:38:19.862Z,1.15
2022-12-31T12:40:53.543Z,1.10
2022-12-31T12:43:27.229Z,1.55
2022-12-31T12:45:56.116Z,1.38
2022-12-31T12:48:28.552Z,0.88
2022-12-31T12:50:55.076Z,1.40
2022-12-31T12:53:44.550Z,1.50
2022-12-31T12:56:14.015Z,0.93
2022-12-31T12:58:48.599Z,1.27
2022-12-31T13:01:17.937Z,1.52
2022-12-31T13:07:08.592Z,1.75
2022-12-31T13:09:35.019Z,1.52
2022-12-31T13:12:08.084Z,0.88
2022-12-31T13:15:01.014Z,0.93
2022-12-31T13:17:30.260Z,1.25
2022-12-31T13:20:01.607Z,0.73
2022-12-31T13:22:43.764Z,1.63
2022-12-31T13:25:24.016Z,1.52
2022-12-31T13:27:51.991Z,1.73
2022-12-31T13:30:20.352Z,2.10
2022-12-31T13:32:49.442Z,0.88
2022-12-31T13:35:25.182Z,1.75
2022-12-31T13:37:53.274Z,1.52
2022-12-31T13:40:23.875Z,1.02
2022-12-31T13:42:54.640Z,1.88
2022-12-31T13:45:24.666Z,0.95
2022-12-31T13:48:14.368Z,2.60
2022-12-31T13:50:40.754Z,0.90
2022-12-31T13:53:13.388Z,1.83
2022-12-31T13:55:48.062Z,1.17
2022-12-31T13:58:23.476Z,1.50
2022-12-31T14:00:56.379Z,1.30
2022-12-31T14:03:35.807Z,1.55
2022-12-31T14:06:05.080Z,1.98
2022-12-31T14:08:31.499Z,1.30
2022-12-31T14:11:16.640Z,2.45
2022-12-31T14:14:02.016Z,1.67
2022-12-31T14:16:36.082Z,1.50
2022-12-31T14:19:10.230Z,1.58
2022-12-31T14:21:46.119Z,1.27
2022-12-31T14:24:12.564Z,1.95
2022-12-31T14:26:41.885Z,2.42
2022-12-31T14:29:11.180Z,2.13
2022-12-31T14:31:52.639Z,1.27
2022-12-31T14:34:25.070Z,1.45
2022-12-31T14:37:06.937Z,1.55
2022-12-31T14:39:59.437Z,1.95
2022-12-31T14:42:32.433Z,1.45
2022-12-31T14:44:58.865Z,2.08
2022-12-31T14:47:31.476Z,1.38
2022-12-31T14:49:57.890Z,2.42
2022-12-31T14:52:28.610Z,1.45
2022-12-31T14:55:11.181Z,1.92
2022-12-31T15:00:24.372Z,1.80
2022-12-31T15:02:51.991Z,1.60
2022-12-31T15:05:20.532Z,1.70
2022-12-31T15:07:46.945Z,1.92
2022-12-31T15:10:13.361Z,2.30
2022-12-31T15:12:46.779Z,2.67
2022-12-31T15:15:16.231Z,2.53
2022-12-31T15:17:54.871Z,2.03
2022-12-31T15:20:30.381Z,2.58
2022-12-31T15:22:56.927Z,2.85
2022-12-31T15:25:36.740Z,2.40
2022-12-31T15:28:08.103Z,2.63
2022-12-31T15:30:34.605Z,1.88
2022-12-31T15:33:03.277Z,2.35
2022-12-31T15:35:31.300Z,2.70
2022-12-31T15:37:59.440Z,2.60
2022-12-31T15:40:25.932Z,2.60
2022-12-31T15:42:55.559Z,2.90
2022-12-31T15:45:27.949Z,3.35
2022-12-31T15:50:21.758Z,3.22
2022-12-31T15:52:58.357Z,4.60
2022-12-31T15:55:30.908Z,3.67
2022-12-31T15:58:03.319Z,3.47
2022-12-31T16:00:36.569Z,3.05
2022-12-31T16:03:03.107Z,3.17
2022-12-31T16:05:33.760Z,2.80
2022-12-31T16:08:00.853Z,3.42
2022-12-31T16:10:29.254Z,3.13
2022-12-31T16:12:57.258Z,2.75
2022-12-31T16:15:25.391Z,3.00
2022-12-31T16:18:05.442Z,2.83
2022-12-31T16:20:33.169Z,2.55
2022-12-31T16:23:01.824Z,2.80
2022-12-31T16:25:31.261Z,2.78
2022-12-31T16:27:58.679Z,3.38
2022-12-31T16:30:26.529Z,2.97
2022-12-31T16:32:58.692Z,2.38
2022-12-31T16:35:28.334Z,2.55
2022-12-31T16:38:04.031Z,3.35
2022-12-31T16:40:30.627Z,3.55
2022-12-31T16:42:56.972Z,3.10
2022-12-31T16:45:31.329Z,3.80
2022-12-31T16:48:02.577Z,3.47
2022-12-31T16:53:57.139Z,3.53
2022-12-31T16:59:35.143Z,3.65
2022-12-31T17:02:04.906Z,3.67
2022-12-31T17:04:31.418Z,3.92
2022-12-31T17:07:33.218Z,3.88
2022-12-31T17:10:18.039Z,3.67
2022-12-31T17:13:27.052Z,4.40
2022-12-31T17:15:42.220Z,3.85
2022-12-31T17:18:15.055Z,3.65
2022-12-31T17:20:41.556Z,4.45
2022-12-31T17:23:08.500Z,4.22
2022-12-31T17:25:36.664Z,4.97
2022-12-31T17:28:05.295Z,4.30
2022-12-31T17:30:35.077Z,5.60
2022-12-31T17:33:05.523Z,4.72
2022-12-31T17:35:33.363Z,5.07
2022-12-31T17:38:21.136Z,4.40
2022-12-31T17:40:51.572Z,6.30
2022-12-31T17:43:19.569Z,5.30
2022-12-31T17:45:46.783Z,5.60
2022-12-31T17:48:14.723Z,5.35
2022-12-31T17:50:48.264Z,6.47
2022-12-31T17:53:14.657Z,5.22
2022-12-31T17:55:42.214Z,5.40
2022-12-31T17:58:16.046Z,6.05
2022-12-31T18:00:42.607Z,6.05
2022-12-31T18:03:09.078Z,5.93
2022-12-31T18:05:35.574Z,6.75
2022-12-31T18:08:01.958Z,6.68
2022-12-31T18:10:29.970Z,6.47
2022-12-31T18:12:58.823Z,6.22
2022-12-31T18:15:25.285Z,8.15
2022-12-31T18:17:51.661Z,7.45
2022-12-31T18:20:18.264Z,6.88
2022-12-31T18:22:45.232Z,8.35
2022-12-31T18:25:13.937Z,8.13
2022-12-31T18:27:42.093Z,7.97
2022-12-31T18:30:12.224Z,7.57
2022-12-31T18:32:39.830Z,9.40
2022-12-31T18:35:21.129Z,8.23
2022-12-31T18:37:58.087Z,9.02
2022-12-31T18:40:24.825Z,7.15
2022-12-31T18:42:51.327Z,8.63
2022-12-31T18:45:19.234Z,8.35
2022-12-31T18:47:45.640Z,6.65
2022-12-31T18:50:16.152Z,7.18
2022-12-31T18:52:42.887Z,6.65
2022-12-31T18:55:24.391Z,7.47
2022-12-31T18:57:50.880Z,7.13
2022-12-31T19:00:17.589Z,8.98
2022-12-31T19:02:44.023Z,8.40
2022-12-31T19:05:24.551Z,7.63
2022-12-31T19:07:50.956Z,6.78
2022-12-31T19:10:17.374Z,7.55
2022-12-31T19:12:44.155Z,8.43
2022-12-31T19:15:22.839Z,7.50
2022-12-31T19:17:49.302Z,7.28
2022-12-31T19:20:15.901Z,6.95
2022-12-31T19:22:42.433Z,7.45
2022-12-31T19:25:19.937Z,6.43
2022-12-31T19:27:46.415Z,7.53
2022-12-31T19:30:21.653Z,8.00
2022-12-31T19:32:48.335Z,8.15
2022-12-31T19:35:15.406Z,7.80
2022-12-31T19:37:42.575Z,7.60
2022-12-31T19:40:17.241Z,7.10
2022-12-31T19:42:44.453Z,6.70
2022-12-31T19:45:13.458Z,6.78
2022-12-31T19:47:39.885Z,7.03
2022-12-31T19:50:06.802Z,7.43
2022-12-31T19:52:44.121Z,7.10
2022-12-31T19:55:15.236Z,7.80
2022-12-31T19:57:44.520Z,7.20
2022-12-31T20:00:16.690Z,7.00
2022-12-31T20:02:44.161Z,6.28
2022-12-31T20:05:11.408Z,7.10
2022-12-31T20:07:39.036Z,7.68
2022-12-31T20:10:06.197Z,6.60
2022-12-31T20:12:32.863Z,7.25
2022-12-31T20:14:59.310Z,6.72
2022-12-31T20:17:25.868Z,7.63
2022-12-31T20:19:52.305Z,6.55
2022-12-31T20:22:18.906Z,6.75
2022-12-31T20:24:45.405Z,6.90
2022-12-31T20:27:18.132Z,6.78
2022-12-31T20:29:45.339Z,6.43
2022-12-31T20:32:11.728Z,6.57
2022-12-31T20:34:38.182Z,6.18
2022-12-31T20:37:04.676Z,6.18
2022-12-31T20:39:31.555Z,6.38
2022-12-31T20:41:57.954Z,6.05
2022-12-31T20:44:24.438Z,5.72
2022-12-31T20:46:51.014Z,5.80
2022-12-31T20:49:31.170Z,6.53
2022-12-31T20:52:05.479Z,6.28
2022-12-31T20:54:32.562Z,5.95
2022-12-31T20:57:00.176Z,5.53
2022-12-31T20:59:27.468Z,5.85
2022-12-31T21:02:20.623Z,6.18
2022-12-31T21:04:40.555Z,6.22
2022-12-31T21:07:07.174Z,5.43
2022-12-31T21:09:33.547Z,6.20
2022-12-31T21:12:18.308Z,5.07
2022-12-31T21:14:45.083Z,5.70
2022-12-31T21:17:11.524Z,5.93
2022-12-31T21:19:37.907Z,6.60
2022-12-31T21:22:04.323Z,5.40
2022-12-31T21:24:30.687Z,5.18
2022-12-31T21:26:57.111Z,5.68
2022-12-31T21:29:23.682Z,5.90
2022-12-31T21:31:50.097Z,5.57
2022-12-31T21:34:16.530Z,4.85
2022-12-31T21:36:42.960Z,5.10
2022-12-31T21:39:09.383Z,5.53
2022-12-31T21:41:51.054Z,5.93
2022-12-31T21:44:21.529Z,5.27
2022-12-31T21:47:24.991Z,5.32
2022-12-31T21:49:35.121Z,4.78
2022-12-31T21:52:23.398Z,4.85
2022-12-31T21:55:08.588Z,4.90
2022-12-31T21:57:59.167Z,5.97
2022-12-31T22:00:43.628Z,4.78
2022-12-31T22:03:29.437Z,4.53
2022-12-31T22:06:20.682Z,5.15
2022-12-31T22:08:48.786Z,4.82
2022-12-31T22:11:16.212Z,4.55
2022-12-31T22:13:42.661Z,4.43
2022-12-31T22:16:09.111Z,4.47
2022-12-31T22:18:38.803Z,4.95
2022-12-31T22:21:10.790Z,3.95
2022-12-31T22:23:42.323Z,4.95
2022-12-31T22:26:10.705Z,4.15
2022-12-31T22:28:39.807Z,4.47
2022-12-31T22:31:07.706Z,4.07
2022-12-31T22:33:34.222Z,5.50
2022-12-31T22:36:01.882Z,4.10
2022-12-31T22:38:28.997Z,4.18
2022-12-31T22:41:09.345Z,4.38
2022-12-31T22:43:37.247Z,4.50
2022-12-31T22:46:10.509Z,4.63
2022-12-31T22:48:37.605Z,4.60
2022-12-31T22:51:04.476Z,3.97
2022-12-31T22:53:30.924Z,3.92
2022-12-31T22:55:57.380Z,4.22
2022-12-31T22:58:24.396Z,4.00
2022-12-31T23:00:50.897Z,4.25
2022-12-31T23:03:17.370Z,3.97
2022-12-31T23:05:44.090Z,3.88
2022-12-31T23:08:20.683Z,4.00
2022-12-31T23:11:06.025Z,3.83
2022-12-31T23:13:55.620Z,4.38
2022-12-31T23:16:41.406Z,5.28
2022-12-31T23:19:26.344Z,4.85
2022-12-31T23:22:11.585Z,4.70
2022-12-31T23:24:38.065Z,6.05
2022-12-31T23:27:04.560Z,5.60
2022-12-31T23:29:30.976Z,5.10
2022-12-31T23:31:57.709Z,5.15
2022-12-31T23:34:24.123Z,5.68
2022-12-31T23:36:50.513Z,6.25
2022-12-31T23:39:16.911Z,5.57
2022-12-31T23:41:43.350Z,6.80
2022-12-31T23:44:11.865Z,7.05
2022-12-31T23:46:38.646Z,6.10
2022-12-31T23:49:05.231Z,6.63
2022-12-31T23:51:31.663Z,7.40
2022-12-31T23:53:58.038Z,6.40
2022-12-31T23:56:24.484Z,7.00
2022-12-31T23:58:57.334Z,6.20
